sensor_id;sensor_type;location;lat;lon;timestamp;temperature;humidity
8565;DHT22;4320;51.498;6.556;2023-09-18T00:00:05;21.40;99.90
8565;DHT22;4320;51.498;6.556;2023-09-18T00:02:36;21.50;99.90
8565;DHT22;4320;51.498;6.556;2023-09-18T00:05:02;21.50;99.90
8565;DHT22;4320;51.498;6.556;2023-09-18T00:07:28;21.50;99.90
8565;DHT22;4320;51.498;6.556;2023-09-18T00:09:53;21.50;99.90
8565;DHT22;4320;51.498;6.556;2023-09-18T00:12:19;21.60;99.90
8565;DHT22;4320;51.498;6.556;2023-09-18T00:14:48;21.60;99.90
8565;DHT22;4320;51.498;6.556;2023-09-18T00:17:15;21.40;99.90
8565;DHT22;4320;51.498;6.556;2023-09-18T00:19:42;21.40;99.90
8565;DHT22;4320;51.498;6.556;2023-09-18T00:22:08;21.40;99.90
8565;DHT22;4320;51.498;6.556;2023-09-18T00:24:33;21.30;99.90
8565;DHT22;4320;51.498;6.556;2023-09-18T00:26:59;21.30;99.90
8565;DHT22;4320;51.498;6.556;2023-09-18T00:29:25;21.30;99.90
8565;DHT22;4320;51.498;6.556;2023-09-18T00:31:50;21.30;99.90
8565;DHT22;4320;51.498;6.556;2023-09-18T00:34:16;21.30;99.90
8565;DHT22;4320;51.498;6.556;2023-09-18T00:36:41;21.40;99.90
8565;DHT22;4320;51.498;6.556;2023-09-18T00:39:07;21.40;99.90
8565;DHT22;4320;51.498;6.556;2023-09-18T00:41:33;21.40;99.90
8565;DHT22;4320;51.498;6.556;2023-09-18T00:43:59;21.30;99.90
8565;DHT22;4320;51.498;6.556;2023-09-18T00:46:25;21.30;99.90
8565;DHT22;4320;51.498;6.556;2023-09-18T00:48:51;21.30;99.90
8565;DHT22;4320;51.498;6.556;2023-09-18T00:51:16;21.20;99.90
8565;DHT22;4320;51.498;6.556;2023-09-18T00:53:46;21.30;99.90
8565;DHT22;4320;51.498;6.556;2023-09-18T00:56:16;21.30;99.90
8565;DHT22;4320;51.498;6.556;2023-09-18T00:58:43;21.30;99.90
8565;DHT22;4320;51.498;6.556;2023-09-18T01:01:10;21.30;99.90
8565;DHT22;4320;51.498;6.556;2023-09-18T01:03:36;21.30;99.90
8565;DHT22;4320;51.498;6.556;2023-09-18T01:06:01;21.30;99.90
8565;DHT22;4320;51.498;6.556;2023-09-18T01:08:28;21.20;99.90
8565;DHT22;4320;51.498;6.556;2023-09-18T01:11:31;21.20;99.90
8565;DHT22;4320;51.498;6.556;2023-09-18T01:16:53;21.20;99.90
8565;DHT22;4320;51.498;6.556;2023-09-18T01:22:09;21.20;99.90
8565;DHT22;4320;51.498;6.556;2023-09-18T01:24:37;21.30;99.90
8565;DHT22;4320;51.498;6.556;2023-09-18T01:27:03;21.40;99.90
8565;DHT22;4320;51.498;6.556;2023-09-18T01:29:32;21.40;99.90
8565;DHT22;4320;51.498;6.556;2023-09-18T01:31:57;21.30;99.90
8565;DHT22;4320;51.498;6.556;2023-09-18T01:34:30;21.20;99.90
8565;DHT22;4320;51.498;6.556;2023-09-18T01:36:59;21.20;99.90
8565;DHT22;4320;51.498;6.556;2023-09-18T01:39:27;21.30;99.90
8565;DHT22;4320;51.498;6.556;2023-09-18T01:41:59;21.30;99.90
8565;DHT22;4320;51.498;6.556;2023-09-18T01:44:27;21.40;99.90
8565;DHT22;4320;51.498;6.556;2023-09-18T01:46:53;21.40;99.90
8565;DHT22;4320;51.498;6.556;2023-09-18T01:49:36;21.40;99.90
8565;DHT22;4320;51.498;6.556;2023-09-18T01:52:03;21.30;99.90
8565;DHT22;4320;51.498;6.556;2023-09-18T01:54:30;21.40;99.90
8565;DHT22;4320;51.498;6.556;2023-09-18T01:56:56;21.50;99.90
8565;DHT22;4320;51.498;6.556;2023-09-18T01:59:22;21.40;99.90
8565;DHT22;4320;51.498;6.556;2023-09-18T02:01:49;21.40;99.90
8565;DHT22;4320;51.498;6.556;2023-09-18T02:04:15;21.30;99.90
8565;DHT22;4320;51.498;6.556;2023-09-18T02:06:41;21.30;99.90
8565;DHT22;4320;51.498;6.556;2023-09-18T02:09:07;21.30;99.90
8565;DHT22;4320;51.498;6.556;2023-09-18T02:11:37;21.40;99.90
8565;DHT22;4320;51.498;6.556;2023-09-18T02:14:03;21.30;99.90
8565;DHT22;4320;51.498;6.556;2023-09-18T02:16:34;21.30;99.90
8565;DHT22;4320;51.498;6.556;2023-09-18T02:19:02;21.30;99.90
8565;DHT22;4320;51.498;6.556;2023-09-18T02:21:27;21.30;99.90
8565;DHT22;4320;51.498;6.556;2023-09-18T02:23:53;21.30;99.90
8565;DHT22;4320;51.498;6.556;2023-09-18T02:26:21;21.30;99.90
8565;DHT22;4320;51.498;6.556;2023-09-18T02:28:47;21.30;99.90
8565;DHT22;4320;51.498;6.556;2023-09-18T02:31:12;21.30;99.90
8565;DHT22;4320;51.498;6.556;2023-09-18T02:33:38;21.40;99.90
8565;DHT22;4320;51.498;6.556;2023-09-18T02:36:04;21.30;99.90
8565;DHT22;4320;51.498;6.556;2023-09-18T02:38:30;21.40;99.90
8565;DHT22;4320;51.498;6.556;2023-09-18T02:40:56;21.40;99.90
8565;DHT22;4320;51.498;6.556;2023-09-18T02:43:22;21.40;99.90
8565;DHT22;4320;51.498;6.556;2023-09-18T02:45:48;21.40;99.90
8565;DHT22;4320;51.498;6.556;2023-09-18T02:48:14;21.40;99.90
8565;DHT22;4320;51.498;6.556;2023-09-18T02:50:40;21.50;99.90
8565;DHT22;4320;51.498;6.556;2023-09-18T02:53:06;21.50;99.90
8565;DHT22;4320;51.498;6.556;2023-09-18T02:55:34;21.50;99.90
8565;DHT22;4320;51.498;6.556;2023-09-18T02:57:59;21.40;99.90
8565;DHT22;4320;51.498;6.556;2023-09-18T03:00:25;21.40;99.90
8565;DHT22;4320;51.498;6.556;2023-09-18T03:02:51;21.40;99.90
8565;DHT22;4320;51.498;6.556;2023-09-18T03:05:16;21.40;99.90
8565;DHT22;4320;51.498;6.556;2023-09-18T03:07:42;21.30;99.90
8565;DHT22;4320;51.498;6.556;2023-09-18T03:10:08;21.20;99.90
8565;DHT22;4320;51.498;6.556;2023-09-18T03:12:34;21.20;99.90
8565;DHT22;4320;51.498;6.556;2023-09-18T03:15:00;21.10;99.90
8565;DHT22;4320;51.498;6.556;2023-09-18T03:17:25;21.10;99.90
8565;DHT22;4320;51.498;6.556;2023-09-18T03:19:51;21.10;99.90
8565;DHT22;4320;51.498;6.556;2023-09-18T03:22:17;21.20;99.90
8565;DHT22;4320;51.498;6.556;2023-09-18T03:24:43;21.30;99.90
8565;DHT22;4320;51.498;6.556;2023-09-18T03:27:08;21.30;99.90
8565;DHT22;4320;51.498;6.556;2023-09-18T03:29:34;21.30;99.90
8565;DHT22;4320;51.498;6.556;2023-09-18T03:32:00;21.40;99.90
8565;DHT22;4320;51.498;6.556;2023-09-18T03:34:25;21.40;99.90
8565;DHT22;4320;51.498;6.556;2023-09-18T03:36:54;21.40;99.90
8565;DHT22;4320;51.498;6.556;2023-09-18T03:39:19;21.40;99.90
8565;DHT22;4320;51.498;6.556;2023-09-18T03:41:45;21.50;99.90
8565;DHT22;4320;51.498;6.556;2023-09-18T03:44:11;21.50;99.90
8565;DHT22;4320;51.498;6.556;2023-09-18T03:46:37;21.50;99.90
8565;DHT22;4320;51.498;6.556;2023-09-18T03:49:02;21.60;99.90
8565;DHT22;4320;51.498;6.556;2023-09-18T03:51:29;21.50;99.90
8565;DHT22;4320;51.498;6.556;2023-09-18T03:53:55;21.60;99.90
8565;DHT22;4320;51.498;6.556;2023-09-18T03:56:21;21.60;99.90
8565;DHT22;4320;51.498;6.556;2023-09-18T03:58:47;21.70;99.90
8565;DHT22;4320;51.498;6.556;2023-09-18T04:01:15;21.70;99.90
8565;DHT22;4320;51.498;6.556;2023-09-18T04:03:41;21.50;99.90
8565;DHT22;4320;51.498;6.556;2023-09-18T04:06:07;21.40;99.90
8565;DHT22;4320;51.498;6.556;2023-09-18T04:08:32;21.30;99.90
8565;DHT22;4320;51.498;6.556;2023-09-18T04:10:58;21.00;99.90
8565;DHT22;4320;51.498;6.556;2023-09-18T04:13:24;20.90;99.90
8565;DHT22;4320;51.498;6.556;2023-09-18T04:15:50;20.80;99.90
8565;DHT22;4320;51.498;6.556;2023-09-18T04:18:17;20.80;99.90
8565;DHT22;4320;51.498;6.556;2023-09-18T04:20:42;20.70;99.90
8565;DHT22;4320;51.498;6.556;2023-09-18T04:23:27;20.70;99.90
8565;DHT22;4320;51.498;6.556;2023-09-18T04:25:54;20.70;99.90
8565;DHT22;4320;51.498;6.556;2023-09-18T04:28:21;20.70;99.90
8565;DHT22;4320;51.498;6.556;2023-09-18T04:30:48;20.60;99.90
8565;DHT22;4320;51.498;6.556;2023-09-18T04:33:14;20.30;99.90
8565;DHT22;4320;51.498;6.556;2023-09-18T04:35:40;20.10;1.00
8565;DHT22;4320;51.498;6.556;2023-09-18T04:38:07;20.20;1.00
8565;DHT22;4320;51.498;6.556;2023-09-18T04:40:34;20.20;1.00
8565;DHT22;4320;51.498;6.556;2023-09-18T04:43:00;20.10;1.00
8565;DHT22;4320;51.498;6.556;2023-09-18T04:45:26;19.90;1.00
8565;DHT22;4320;51.498;6.556;2023-09-18T04:47:52;19.80;1.00
8565;DHT22;4320;51.498;6.556;2023-09-18T04:50:18;19.70;1.00
8565;DHT22;4320;51.498;6.556;2023-09-18T04:52:44;19.70;1.00
8565;DHT22;4320;51.498;6.556;2023-09-18T04:55:10;19.80;1.00
8565;DHT22;4320;51.498;6.556;2023-09-18T04:57:37;19.90;1.00
8565;DHT22;4320;51.498;6.556;2023-09-18T05:00:03;20.00;1.00
8565;DHT22;4320;51.498;6.556;2023-09-18T05:02:33;20.10;1.00
8565;DHT22;4320;51.498;6.556;2023-09-18T05:05:00;20.10;1.00
8565;DHT22;4320;51.498;6.556;2023-09-18T05:07:26;20.00;1.00
8565;DHT22;4320;51.498;6.556;2023-09-18T05:09:51;20.10;1.00
8565;DHT22;4320;51.498;6.556;2023-09-18T05:12:17;20.10;1.00
8565;DHT22;4320;51.498;6.556;2023-09-18T05:14:43;20.00;1.00
8565;DHT22;4320;51.498;6.556;2023-09-18T05:17:10;20.00;1.00
8565;DHT22;4320;51.498;6.556;2023-09-18T05:19:37;20.00;1.00
8565;DHT22;4320;51.498;6.556;2023-09-18T05:22:03;19.90;1.00
8565;DHT22;4320;51.498;6.556;2023-09-18T05:24:28;20.00;1.00
8565;DHT22;4320;51.498;6.556;2023-09-18T05:26:54;19.90;1.00
8565;DHT22;4320;51.498;6.556;2023-09-18T05:29:20;20.00;1.00
8565;DHT22;4320;51.498;6.556;2023-09-18T05:31:46;20.00;1.00
8565;DHT22;4320;51.498;6.556;2023-09-18T05:34:12;20.00;1.00
8565;DHT22;4320;51.498;6.556;2023-09-18T05:36:38;20.00;1.00
8565;DHT22;4320;51.498;6.556;2023-09-18T05:39:04;19.90;1.00
8565;DHT22;4320;51.498;6.556;2023-09-18T05:41:35;19.80;1.00
8565;DHT22;4320;51.498;6.556;2023-09-18T05:44:01;19.80;1.00
8565;DHT22;4320;51.498;6.556;2023-09-18T05:46:29;19.80;1.00
8565;DHT22;4320;51.498;6.556;2023-09-18T05:48:55;19.90;1.00
8565;DHT22;4320;51.498;6.556;2023-09-18T05:51:22;19.90;1.00
8565;DHT22;4320;51.498;6.556;2023-09-18T05:53:49;20.00;1.00
8565;DHT22;4320;51.498;6.556;2023-09-18T05:56:14;20.00;1.00
8565;DHT22;4320;51.498;6.556;2023-09-18T05:58:42;20.00;1.00
8565;DHT22;4320;51.498;6.556;2023-09-18T06:01:08;20.00;1.00
8565;DHT22;4320;51.498;6.556;2023-09-18T06:03:33;20.00;1.00
8565;DHT22;4320;51.498;6.556;2023-09-18T06:06:07;20.10;1.00
8565;DHT22;4320;51.498;6.556;2023-09-18T06:08:34;20.10;1.00
8565;DHT22;4320;51.498;6.556;2023-09-18T06:10:59;20.00;1.00
8565;DHT22;4320;51.498;6.556;2023-09-18T06:13:25;19.90;1.00
8565;DHT22;4320;51.498;6.556;2023-09-18T06:15:52;20.00;1.00
8565;DHT22;4320;51.498;6.556;2023-09-18T06:18:22;19.90;1.00
8565;DHT22;4320;51.498;6.556;2023-09-18T06:20:48;20.00;1.00
8565;DHT22;4320;51.498;6.556;2023-09-18T06:23:14;20.10;1.00
8565;DHT22;4320;51.498;6.556;2023-09-18T06:25:40;20.10;99.90
8565;DHT22;4320;51.498;6.556;2023-09-18T06:28:06;20.00;99.90
8565;DHT22;4320;51.498;6.556;2023-09-18T06:30:32;19.80;99.90
8565;DHT22;4320;51.498;6.556;2023-09-18T06:33:02;19.80;99.90
8565;DHT22;4320;51.498;6.556;2023-09-18T06:35:29;19.90;99.90
8565;DHT22;4320;51.498;6.556;2023-09-18T06:37:55;19.90;99.90
8565;DHT22;4320;51.498;6.556;2023-09-18T06:40:24;19.80;99.90
8565;DHT22;4320;51.498;6.556;2023-09-18T06:42:50;19.90;99.90
8565;DHT22;4320;51.498;6.556;2023-09-18T06:45:17;19.90;99.90
8565;DHT22;4320;51.498;6.556;2023-09-18T06:47:42;20.00;99.90
8565;DHT22;4320;51.498;6.556;2023-09-18T06:50:08;20.00;99.90
8565;DHT22;4320;51.498;6.556;2023-09-18T06:52:34;20.00;99.90
8565;DHT22;4320;51.498;6.556;2023-09-18T06:55:00;20.10;99.90
8565;DHT22;4320;51.498;6.556;2023-09-18T06:57:26;20.20;99.90
8565;DHT22;4320;51.498;6.556;2023-09-18T06:59:53;20.20;99.90
8565;DHT22;4320;51.498;6.556;2023-09-18T07:02:18;20.20;99.90
8565;DHT22;4320;51.498;6.556;2023-09-18T07:04:44;20.30;99.90
8565;DHT22;4320;51.498;6.556;2023-09-18T07:07:13;20.30;99.90
8565;DHT22;4320;51.498;6.556;2023-09-18T07:09:40;20.40;99.90
8565;DHT22;4320;51.498;6.556;2023-09-18T07:12:10;20.40;99.90
8565;DHT22;4320;51.498;6.556;2023-09-18T07:14:36;20.40;99.90
8565;DHT22;4320;51.498;6.556;2023-09-18T07:17:03;20.40;99.90
8565;DHT22;4320;51.498;6.556;2023-09-18T07:19:29;20.50;99.90
8565;DHT22;4320;51.498;6.556;2023-09-18T07:21:55;20.60;99.90
8565;DHT22;4320;51.498;6.556;2023-09-18T07:24:20;20.70;99.90
8565;DHT22;4320;51.498;6.556;2023-09-18T07:26:47;20.60;99.90
8565;DHT22;4320;51.498;6.556;2023-09-18T07:29:16;20.70;99.90
8565;DHT22;4320;51.498;6.556;2023-09-18T07:31:42;20.70;99.90
8565;DHT22;4320;51.498;6.556;2023-09-18T07:34:08;20.70;99.90
8565;DHT22;4320;51.498;6.556;2023-09-18T07:36:34;20.70;99.90
8565;DHT22;4320;51.498;6.556;2023-09-18T07:39:00;20.70;99.90
8565;DHT22;4320;51.498;6.556;2023-09-18T07:41:26;20.70;99.90
8565;DHT22;4320;51.498;6.556;2023-09-18T07:43:51;20.70;99.90
8565;DHT22;4320;51.498;6.556;2023-09-18T07:46:17;20.70;99.90
8565;DHT22;4320;51.498;6.556;2023-09-18T07:48:43;20.80;99.90
8565;DHT22;4320;51.498;6.556;2023-09-18T07:51:12;20.80;99.90
8565;DHT22;4320;51.498;6.556;2023-09-18T07:53:39;20.80;99.90
8565;DHT22;4320;51.498;6.556;2023-09-18T07:56:04;20.90;99.90
8565;DHT22;4320;51.498;6.556;2023-09-18T07:58:31;20.90;99.90
8565;DHT22;4320;51.498;6.556;2023-09-18T08:00:59;20.80;99.90
8565;DHT22;4320;51.498;6.556;2023-09-18T08:03:25;20.90;99.90
8565;DHT22;4320;51.498;6.556;2023-09-18T08:05:52;21.00;99.90
8565;DHT22;4320;51.498;6.556;2023-09-18T08:08:19;21.00;99.90
8565;DHT22;4320;51.498;6.556;2023-09-18T08:10:49;21.10;99.90
8565;DHT22;4320;51.498;6.556;2023-09-18T08:13:15;21.20;99.90
8565;DHT22;4320;51.498;6.556;2023-09-18T08:15:41;21.20;99.90
8565;DHT22;4320;51.498;6.556;2023-09-18T08:18:07;21.20;99.90
8565;DHT22;4320;51.498;6.556;2023-09-18T08:20:32;21.30;99.90
8565;DHT22;4320;51.498;6.556;2023-09-18T08:22:58;21.30;99.90
8565;DHT22;4320;51.498;6.556;2023-09-18T08:25:27;21.30;99.90
8565;DHT22;4320;51.498;6.556;2023-09-18T08:27:52;21.40;99.90
8565;DHT22;4320;51.498;6.556;2023-09-18T08:30:18;21.60;99.90
8565;DHT22;4320;51.498;6.556;2023-09-18T08:32:46;21.60;99.90
8565;DHT22;4320;51.498;6.556;2023-09-18T08:35:13;21.70;99.90
8565;DHT22;4320;51.498;6.556;2023-09-18T08:37:40;21.80;99.90
8565;DHT22;4320;51.498;6.556;2023-09-18T08:40:09;21.80;99.90
8565;DHT22;4320;51.498;6.556;2023-09-18T08:42:38;21.80;99.90
8565;DHT22;4320;51.498;6.556;2023-09-18T08:45:07;21.70;99.90
8565;DHT22;4320;51.498;6.556;2023-09-18T08:47:34;21.70;99.90
8565;DHT22;4320;51.498;6.556;2023-09-18T08:50:01;21.70;99.90
8565;DHT22;4320;51.498;6.556;2023-09-18T08:52:27;21.70;99.90
8565;DHT22;4320;51.498;6.556;2023-09-18T08:54:54;21.70;99.90
8565;DHT22;4320;51.498;6.556;2023-09-18T08:57:21;21.70;99.90
8565;DHT22;4320;51.498;6.556;2023-09-18T08:59:48;21.70;99.90
8565;DHT22;4320;51.498;6.556;2023-09-18T09:02:14;21.70;99.90
8565;DHT22;4320;51.498;6.556;2023-09-18T09:04:40;21.70;99.90
8565;DHT22;4320;51.498;6.556;2023-09-18T09:07:06;21.80;99.90
8565;DHT22;4320;51.498;6.556;2023-09-18T09:09:32;21.90;99.90
8565;DHT22;4320;51.498;6.556;2023-09-18T09:11:57;21.80;99.90
8565;DHT22;4320;51.498;6.556;2023-09-18T09:14:23;21.80;99.90
8565;DHT22;4320;51.498;6.556;2023-09-18T09:16:56;21.80;99.90
8565;DHT22;4320;51.498;6.556;2023-09-18T09:19:32;21.70;99.90
8565;DHT22;4320;51.498;6.556;2023-09-18T09:21:58;21.70;99.90
8565;DHT22;4320;51.498;6.556;2023-09-18T09:24:44;21.70;99.90
8565;DHT22;4320;51.498;6.556;2023-09-18T09:27:10;21.70;99.90
8565;DHT22;4320;51.498;6.556;2023-09-18T09:29:36;21.80;99.90
8565;DHT22;4320;51.498;6.556;2023-09-18T09:32:18;21.80;99.90
8565;DHT22;4320;51.498;6.556;2023-09-18T09:34:45;21.80;99.90
8565;DHT22;4320;51.498;6.556;2023-09-18T09:37:12;21.80;99.90
8565;DHT22;4320;51.498;6.556;2023-09-18T09:39:51;21.90;99.90
8565;DHT22;4320;51.498;6.556;2023-09-18T09:42:18;21.90;99.90
8565;DHT22;4320;51.498;6.556;2023-09-18T09:45:11;22.00;99.90
8565;DHT22;4320;51.498;6.556;2023-09-18T09:47:37;22.10;99.90
8565;DHT22;4320;51.498;6.556;2023-09-18T09:50:08;22.10;99.90
8565;DHT22;4320;51.498;6.556;2023-09-18T09:52:35;22.00;99.90
8565;DHT22;4320;51.498;6.556;2023-09-18T09:55:02;22.10;99.90
8565;DHT22;4320;51.498;6.556;2023-09-18T09:57:30;22.20;99.90
8565;DHT22;4320;51.498;6.556;2023-09-18T10:00:03;22.20;99.90
8565;DHT22;4320;51.498;6.556;2023-09-18T10:02:48;22.30;99.90
8565;DHT22;4320;51.498;6.556;2023-09-18T10:05:16;22.40;99.90
8565;DHT22;4320;51.498;6.556;2023-09-18T10:07:43;22.40;99.90
8565;DHT22;4320;51.498;6.556;2023-09-18T10:10:09;22.40;99.90
8565;DHT22;4320;51.498;6.556;2023-09-18T10:12:36;22.50;99.90
8565;DHT22;4320;51.498;6.556;2023-09-18T10:15:02;22.60;99.90
8565;DHT22;4320;51.498;6.556;2023-09-18T10:17:29;22.70;99.90
8565;DHT22;4320;51.498;6.556;2023-09-18T10:20:09;22.90;99.90
8565;DHT22;4320;51.498;6.556;2023-09-18T10:22:53;22.90;99.90
8565;DHT22;4320;51.498;6.556;2023-09-18T10:25:29;23.00;99.90
8565;DHT22;4320;51.498;6.556;2023-09-18T10:27:57;22.90;99.90
8565;DHT22;4320;51.498;6.556;2023-09-18T10:30:24;23.00;99.90
8565;DHT22;4320;51.498;6.556;2023-09-18T10:32:51;23.10;99.90
8565;DHT22;4320;51.498;6.556;2023-09-18T10:35:17;23.10;99.90
8565;DHT22;4320;51.498;6.556;2023-09-18T10:37:45;23.10;99.90
8565;DHT22;4320;51.498;6.556;2023-09-18T10:40:12;23.10;99.90
8565;DHT22;4320;51.498;6.556;2023-09-18T10:42:40;23.10;99.90
8565;DHT22;4320;51.498;6.556;2023-09-18T10:45:08;23.10;99.90
8565;DHT22;4320;51.498;6.556;2023-09-18T10:47:43;23.10;99.90
8565;DHT22;4320;51.498;6.556;2023-09-18T10:50:10;23.10;99.90
8565;DHT22;4320;51.498;6.556;2023-09-18T10:52:42;23.10;99.90
8565;DHT22;4320;51.498;6.556;2023-09-18T10:55:12;23.20;99.90
8565;DHT22;4320;51.498;6.556;2023-09-18T10:57:48;23.20;99.90
8565;DHT22;4320;51.498;6.556;2023-09-18T11:00:14;23.20;99.90
8565;DHT22;4320;51.498;6.556;2023-09-18T11:02:42;23.20;99.90
8565;DHT22;4320;51.498;6.556;2023-09-18T11:05:07;23.10;99.90
8565;DHT22;4320;51.498;6.556;2023-09-18T11:07:33;23.20;99.90
8565;DHT22;4320;51.498;6.556;2023-09-18T11:09:59;23.20;99.90
8565;DHT22;4320;51.498;6.556;2023-09-18T11:12:43;23.20;99.90
8565;DHT22;4320;51.498;6.556;2023-09-18T11:15:25;23.30;99.90
8565;DHT22;4320;51.498;6.556;2023-09-18T11:18:01;23.40;97.30
8565;DHT22;4320;51.498;6.556;2023-09-18T11:20:28;23.40;95.20
8565;DHT22;4320;51.498;6.556;2023-09-18T11:28:06;23.30;89.90
8565;DHT22;4320;51.498;6.556;2023-09-18T11:30:34;23.40;89.50
8565;DHT22;4320;51.498;6.556;2023-09-18T11:33:05;23.50;85.60
8565;DHT22;4320;51.498;6.556;2023-09-18T11:35:35;23.40;87.90
8565;DHT22;4320;51.498;6.556;2023-09-18T11:38:05;23.50;88.30
8565;DHT22;4320;51.498;6.556;2023-09-18T11:40:32;23.50;89.10
8565;DHT22;4320;51.498;6.556;2023-09-18T11:45:58;23.60;81.80
8565;DHT22;4320;51.498;6.556;2023-09-18T11:48:26;23.60;80.00
8565;DHT22;4320;51.498;6.556;2023-09-18T11:50:59;23.60;77.40
8565;DHT22;4320;51.498;6.556;2023-09-18T11:53:27;23.70;73.60
8565;DHT22;4320;51.498;6.556;2023-09-18T11:55:53;23.70;65.40
8565;DHT22;4320;51.498;6.556;2023-09-18T11:58:18;23.70;58.90
8565;DHT22;4320;51.498;6.556;2023-09-18T12:00:49;23.60;52.20
8565;DHT22;4320;51.498;6.556;2023-09-18T12:03:17;23.70;54.00
8565;DHT22;4320;51.498;6.556;2023-09-18T12:06:02;23.90;58.10
8565;DHT22;4320;51.498;6.556;2023-09-18T12:08:31;24.00;45.70
8565;DHT22;4320;51.498;6.556;2023-09-18T12:10:57;24.10;42.60
8565;DHT22;4320;51.498;6.556;2023-09-18T12:13:26;24.00;34.60
8565;DHT22;4320;51.498;6.556;2023-09-18T12:15:57;24.00;33.60
8565;DHT22;4320;51.498;6.556;2023-09-18T12:18:24;23.90;38.00
8565;DHT22;4320;51.498;6.556;2023-09-18T12:20:50;24.00;32.20
8565;DHT22;4320;51.498;6.556;2023-09-18T12:23:17;24.20;34.10
8565;DHT22;4320;51.498;6.556;2023-09-18T12:25:48;24.50;30.50
8565;DHT22;4320;51.498;6.556;2023-09-18T12:28:15;24.70;21.30
8565;DHT22;4320;51.498;6.556;2023-09-18T12:30:43;24.80;16.30
8565;DHT22;4320;51.498;6.556;2023-09-18T12:33:09;24.70;7.90
8565;DHT22;4320;51.498;6.556;2023-09-18T12:35:36;24.70;7.70
8565;DHT22;4320;51.498;6.556;2023-09-18T12:38:14;24.90;7.40
8565;DHT22;4320;51.498;6.556;2023-09-18T12:40:40;25.10;1.00
8565;DHT22;4320;51.498;6.556;2023-09-18T12:43:06;25.00;1.00
8565;DHT22;4320;51.498;6.556;2023-09-18T12:45:34;25.10;1.00
8565;DHT22;4320;51.498;6.556;2023-09-18T12:48:01;25.30;1.00
8565;DHT22;4320;51.498;6.556;2023-09-18T12:50:26;25.30;1.00
8565;DHT22;4320;51.498;6.556;2023-09-18T12:52:52;25.40;1.00
8565;DHT22;4320;51.498;6.556;2023-09-18T12:55:25;25.40;1.00
8565;DHT22;4320;51.498;6.556;2023-09-18T12:57:52;25.40;1.00
8565;DHT22;4320;51.498;6.556;2023-09-18T13:00:19;25.20;1.00
8565;DHT22;4320;51.498;6.556;2023-09-18T13:02:50;24.80;1.00
8565;DHT22;4320;51.498;6.556;2023-09-18T13:05:21;24.50;1.00
8565;DHT22;4320;51.498;6.556;2023-09-18T13:07:50;24.40;1.00
8565;DHT22;4320;51.498;6.556;2023-09-18T13:10:16;24.40;1.00
8565;DHT22;4320;51.498;6.556;2023-09-18T13:12:52;24.40;1.00
8565;DHT22;4320;51.498;6.556;2023-09-18T13:15:28;24.70;1.00
8565;DHT22;4320;51.498;6.556;2023-09-18T13:17:55;25.00;1.00
8565;DHT22;4320;51.498;6.556;2023-09-18T13:20:23;25.30;1.00
8565;DHT22;4320;51.498;6.556;2023-09-18T13:22:54;25.60;1.00
8565;DHT22;4320;51.498;6.556;2023-09-18T13:25:25;25.70;1.00
8565;DHT22;4320;51.498;6.556;2023-09-18T13:27:52;26.00;1.00
8565;DHT22;4320;51.498;6.556;2023-09-18T13:30:19;26.00;1.00
8565;DHT22;4320;51.498;6.556;2023-09-18T13:32:46;26.00;1.00
8565;DHT22;4320;51.498;6.556;2023-09-18T13:35:14;26.10;1.00
8565;DHT22;4320;51.498;6.556;2023-09-18T13:37:40;26.20;1.00
8565;DHT22;4320;51.498;6.556;2023-09-18T13:40:06;26.30;1.00
8565;DHT22;4320;51.498;6.556;2023-09-18T13:42:34;26.20;1.00
8565;DHT22;4320;51.498;6.556;2023-09-18T13:45:01;26.10;1.00
8565;DHT22;4320;51.498;6.556;2023-09-18T13:47:27;26.10;1.00
8565;DHT22;4320;51.498;6.556;2023-09-18T13:49:53;26.20;1.00
8565;DHT22;4320;51.498;6.556;2023-09-18T13:52:23;25.70;1.00
8565;DHT22;4320;51.498;6.556;2023-09-18T13:54:48;25.60;1.00
8565;DHT22;4320;51.498;6.556;2023-09-18T13:57:17;25.80;1.00
8565;DHT22;4320;51.498;6.556;2023-09-18T13:59:44;25.70;1.00
8565;DHT22;4320;51.498;6.556;2023-09-18T14:02:11;25.80;1.00
8565;DHT22;4320;51.498;6.556;2023-09-18T14:04:37;25.80;1.00
8565;DHT22;4320;51.498;6.556;2023-09-18T14:07:03;25.80;1.00
8565;DHT22;4320;51.498;6.556;2023-09-18T14:09:29;25.50;1.00
8565;DHT22;4320;51.498;6.556;2023-09-18T14:11:55;25.50;1.00
8565;DHT22;4320;51.498;6.556;2023-09-18T14:14:22;25.70;1.00
8565;DHT22;4320;51.498;6.556;2023-09-18T14:16:47;25.60;1.00
8565;DHT22;4320;51.498;6.556;2023-09-18T14:19:13;25.60;1.00
8565;DHT22;4320;51.498;6.556;2023-09-18T14:21:39;25.50;1.00
8565;DHT22;4320;51.498;6.556;2023-09-18T14:24:05;25.50;1.00
8565;DHT22;4320;51.498;6.556;2023-09-18T14:26:31;25.40;1.00
8565;DHT22;4320;51.498;6.556;2023-09-18T14:28:56;25.50;1.00
8565;DHT22;4320;51.498;6.556;2023-09-18T14:31:22;25.50;1.00
8565;DHT22;4320;51.498;6.556;2023-09-18T14:33:48;25.40;1.00
8565;DHT22;4320;51.498;6.556;2023-09-18T14:36:14;25.40;1.00
8565;DHT22;4320;51.498;6.556;2023-09-18T14:38:40;25.30;1.00
8565;DHT22;4320;51.498;6.556;2023-09-18T14:41:06;25.20;1.00
8565;DHT22;4320;51.498;6.556;2023-09-18T14:43:32;25.10;1.00
8565;DHT22;4320;51.498;6.556;2023-09-18T14:45:58;25.10;1.00
8565;DHT22;4320;51.498;6.556;2023-09-18T14:48:24;25.10;1.00
8565;DHT22;4320;51.498;6.556;2023-09-18T14:50:56;25.10;1.00
8565;DHT22;4320;51.498;6.556;2023-09-18T14:53:22;25.10;1.00
8565;DHT22;4320;51.498;6.556;2023-09-18T14:55:48;25.10;1.00
8565;DHT22;4320;51.498;6.556;2023-09-18T14:58:14;25.10;1.00
8565;DHT22;4320;51.498;6.556;2023-09-18T15:00:40;24.90;1.00
8565;DHT22;4320;51.498;6.556;2023-09-18T15:03:05;24.80;1.00
8565;DHT22;4320;51.498;6.556;2023-09-18T15:05:31;24.70;1.00
8565;DHT22;4320;51.498;6.556;2023-09-18T15:07:56;24.60;1.00
8565;DHT22;4320;51.498;6.556;2023-09-18T15:10:22;24.70;1.00
8565;DHT22;4320;51.498;6.556;2023-09-18T15:12:47;24.70;1.00
8565;DHT22;4320;51.498;6.556;2023-09-18T15:15:13;24.70;1.00
8565;DHT22;4320;51.498;6.556;2023-09-18T15:17:39;24.70;1.00
8565;DHT22;4320;51.498;6.556;2023-09-18T15:20:06;24.70;1.00
8565;DHT22;4320;51.498;6.556;2023-09-18T15:22:31;24.80;1.00
8565;DHT22;4320;51.498;6.556;2023-09-18T15:24:57;24.80;1.00
8565;DHT22;4320;51.498;6.556;2023-09-18T15:27:23;24.70;1.00
8565;DHT22;4320;51.498;6.556;2023-09-18T15:29:49;24.80;1.00
8565;DHT22;4320;51.498;6.556;2023-09-18T15:32:15;24.70;1.00
8565;DHT22;4320;51.498;6.556;2023-09-18T15:34:40;24.70;1.00
8565;DHT22;4320;51.498;6.556;2023-09-18T15:37:06;24.70;1.00
8565;DHT22;4320;51.498;6.556;2023-09-18T15:39:32;24.80;1.00
8565;DHT22;4320;51.498;6.556;2023-09-18T15:42:00;24.70;1.00
8565;DHT22;4320;51.498;6.556;2023-09-18T15:44:26;24.70;1.00
8565;DHT22;4320;51.498;6.556;2023-09-18T15:46:52;24.70;1.00
8565;DHT22;4320;51.498;6.556;2023-09-18T15:49:17;24.70;1.00
8565;DHT22;4320;51.498;6.556;2023-09-18T15:51:44;24.70;1.00
8565;DHT22;4320;51.498;6.556;2023-09-18T15:54:09;24.70;1.00
8565;DHT22;4320;51.498;6.556;2023-09-18T15:56:35;24.70;1.00
8565;DHT22;4320;51.498;6.556;2023-09-18T15:59:01;24.70;1.00
8565;DHT22;4320;51.498;6.556;2023-09-18T16:01:27;24.70;1.00
8565;DHT22;4320;51.498;6.556;2023-09-18T16:03:53;24.60;1.00
8565;DHT22;4320;51.498;6.556;2023-09-18T16:06:22;24.60;1.00
8565;DHT22;4320;51.498;6.556;2023-09-18T16:08:47;24.60;1.00
8565;DHT22;4320;51.498;6.556;2023-09-18T16:11:14;24.70;1.00
8565;DHT22;4320;51.498;6.556;2023-09-18T16:13:40;24.60;1.00
8565;DHT22;4320;51.498;6.556;2023-09-18T16:16:06;24.50;1.00
8565;DHT22;4320;51.498;6.556;2023-09-18T16:18:57;24.40;1.00
8565;DHT22;4320;51.498;6.556;2023-09-18T16:21:23;24.30;1.00